createdAt,value
2019-05-01T00:00:15.940Z,23.47
2019-05-01T00:02:32.455Z,22.73
2019-05-01T00:04:54.345Z,23.70
2019-05-01T00:07:01.338Z,19.50
2019-05-01T00:09:10.218Z,21.97
2019-05-01T00:11:15.224Z,22.20
2019-05-01T00:13:20.116Z,19.80
2019-05-01T00:15:26.605Z,21.73
2019-05-01T00:17:31.336Z,22.37
2019-05-01T00:19:37.534Z,22.10
2019-05-01T00:21:42.975Z,22.00
2019-05-01T00:23:48.200Z,23.67
2019-05-01T00:25:58.250Z,23.10
2019-05-01T00:28:05.478Z,23.30
2019-05-01T00:30:28.797Z,22.40
2019-05-01T00:32:23.531Z,24.60
2019-05-01T00:34:33.029Z,25.27
2019-05-01T00:38:49.524Z,25.20
2019-05-01T00:40:55.934Z,23.43
2019-05-01T00:43:04.885Z,24.30
2019-05-01T00:45:09.580Z,25.33
2019-05-01T00:47:14.543Z,21.80
2019-05-01T00:49:20.609Z,23.37
2019-05-01T00:51:26.068Z,24.33
2019-05-01T00:53:34.551Z,23.27
2019-05-01T00:56:05.706Z,24.47
2019-05-01T00:58:22.296Z,24.77
2019-05-01T01:00:53.648Z,24.67
2019-05-01T01:03:27.335Z,24.40
2019-05-01T01:05:34.408Z,25.40
2019-05-01T01:07:43.021Z,26.17
2019-05-01T01:09:51.690Z,24.30
2019-05-01T01:11:56.504Z,23.70
2019-05-01T01:14:04.671Z,23.67
2019-05-01T01:16:12.514Z,22.90
2019-05-01T01:18:16.992Z,23.60
2019-05-01T01:20:27.089Z,24.83
2019-05-01T01:22:33.640Z,23.10
2019-05-01T01:24:40.235Z,23.80
2019-05-01T01:26:47.425Z,21.33
2019-05-01T01:28:54.227Z,23.30
2019-05-01T01:30:59.356Z,25.40
2019-05-01T01:33:08.995Z,23.97
2019-05-01T01:35:13.530Z,24.77
2019-05-01T01:37:17.984Z,23.50
2019-05-01T01:39:27.456Z,21.97
2019-05-01T01:41:33.773Z,25.67
2019-05-01T01:44:04.067Z,23.97
2019-05-01T01:46:10.095Z,23.40
2019-05-01T01:48:17.627Z,22.87
2019-05-01T01:50:22.796Z,24.80
2019-05-01T01:52:28.399Z,25.40
2019-05-01T01:54:34.135Z,21.50
2019-05-01T01:56:40.796Z,25.80
2019-05-01T01:58:46.490Z,23.40
2019-05-01T02:01:15.168Z,27.10
2019-05-01T02:03:21.228Z,24.17
2019-05-01T02:05:30.157Z,26.50
2019-05-01T02:07:44.490Z,24.47
2019-05-01T02:09:51.857Z,24.03
2019-05-01T02:11:56.670Z,26.30
2019-05-01T02:14:02.808Z,23.03
2019-05-01T02:16:07.776Z,26.70
2019-05-01T02:18:12.315Z,22.50
2019-05-01T02:20:19.925Z,24.43
2019-05-01T02:22:27.217Z,25.00
2019-05-01T02:24:33.417Z,25.00
2019-05-01T02:26:42.783Z,26.70
2019-05-01T02:29:05.809Z,26.40
2019-05-01T02:31:28.037Z,27.13
2019-05-01T02:33:30.153Z,26.50
2019-05-01T02:35:35.947Z,26.20
2019-05-01T02:37:44.757Z,26.63
2019-05-01T02:39:55.191Z,23.50
2019-05-01T02:42:02.874Z,25.70
2019-05-01T02:44:14.635Z,25.20
2019-05-01T02:46:21.615Z,24.50
2019-05-01T02:48:29.021Z,24.80
2019-05-01T02:50:36.159Z,23.53
2019-05-01T02:52:45.262Z,27.20
2019-05-01T02:54:51.158Z,25.47
2019-05-01T02:57:01.559Z,28.67
2019-05-01T02:59:09.361Z,24.03
2019-05-01T03:01:16.347Z,25.57
2019-05-01T03:03:25.191Z,26.17
2019-05-01T03:05:31.254Z,27.00
2019-05-01T03:07:40.180Z,27.00
2019-05-01T03:09:50.039Z,26.00
2019-05-01T03:12:00.912Z,23.90
2019-05-01T03:14:07.527Z,25.13
2019-05-01T03:16:13.037Z,26.37
2019-05-01T03:18:26.025Z,25.73
2019-05-01T03:20:53.521Z,25.60
2019-05-01T03:23:32.011Z,27.60
2019-05-01T03:25:39.422Z,27.60
2019-05-01T03:27:44.770Z,32.50
2019-05-01T03:29:52.334Z,30.93
2019-05-01T03:32:15.672Z,33.20
2019-05-01T03:34:06.477Z,33.57
2019-05-01T03:36:15.336Z,31.70
2019-05-01T03:38:22.700Z,36.17
2019-05-01T03:40:27.242Z,33.50
2019-05-01T03:42:32.506Z,31.90
2019-05-01T03:44:37.515Z,34.67
2019-05-01T03:46:42.380Z,31.57
2019-05-01T03:48:47.357Z,34.90
2019-05-01T03:50:55.673Z,33.30
2019-05-01T03:53:10.821Z,31.00
2019-05-01T03:55:15.983Z,33.37
2019-05-01T03:57:22.788Z,28.90
2019-05-01T03:59:28.096Z,28.37
2019-05-01T04:01:48.068Z,31.23
2019-05-01T04:03:56.476Z,28.37
2019-05-01T04:06:02.020Z,29.60
2019-05-01T04:08:06.626Z,27.97
2019-05-01T04:10:11.873Z,29.67
2019-05-01T04:12:16.497Z,29.40
2019-05-01T04:14:21.089Z,28.20
2019-05-01T04:16:28.205Z,28.27
2019-05-01T04:18:36.614Z,28.93
2019-05-01T04:20:41.967Z,29.70
2019-05-01T04:22:49.184Z,29.50
2019-05-01T04:25:02.748Z,28.40
2019-05-01T04:27:09.052Z,25.27
2019-05-01T04:29:32.441Z,25.77
2019-05-01T04:31:55.025Z,29.50
2019-05-01T04:34:06.636Z,28.77
2019-05-01T04:36:17.204Z,27.73
2019-05-01T04:38:22.250Z,28.83
2019-05-01T04:40:28.236Z,27.47
2019-05-01T04:42:37.079Z,24.37
2019-05-01T04:44:42.743Z,27.30
2019-05-01T04:46:48.258Z,26.00
2019-05-01T04:48:53.439Z,27.87
2019-05-01T04:50:59.441Z,24.90
2019-05-01T04:53:04.741Z,29.50
2019-05-01T04:55:09.563Z,25.43
2019-05-01T04:57:15.708Z,26.87
2019-05-01T04:59:21.500Z,29.17
2019-05-01T05:01:29.308Z,27.13
2019-05-01T05:03:36.493Z,28.27
2019-05-01T05:05:41.795Z,26.80
2019-05-01T05:07:46.864Z,26.83
2019-05-01T05:09:51.735Z,30.20
2019-05-01T05:11:58.369Z,29.17
2019-05-01T05:14:09.873Z,26.47
2019-05-01T05:16:23.998Z,27.20
2019-05-01T05:18:29.601Z,32.60
2019-05-01T05:20:34.632Z,30.50
2019-05-01T05:22:40.073Z,31.83
2019-05-01T05:24:47.663Z,30.00
2019-05-01T05:26:52.751Z,35.50
2019-05-01T05:28:58.867Z,34.47
2019-05-01T05:31:04.359Z,35.40
2019-05-01T05:33:18.678Z,32.40
2019-05-01T05:35:22.892Z,34.00
2019-05-01T05:37:34.401Z,34.00
2019-05-01T05:39:44.996Z,34.37
2019-05-01T05:41:54.573Z,35.07
2019-05-01T05:43:59.911Z,33.97
2019-05-01T05:46:09.156Z,33.13
2019-05-01T05:48:13.899Z,37.10
2019-05-01T05:50:20.233Z,36.03
2019-05-01T05:52:40.559Z,30.90
2019-05-01T05:54:58.551Z,34.20
2019-05-01T05:57:21.543Z,33.83
2019-05-01T05:59:33.374Z,35.50
2019-05-01T06:01:59.684Z,32.80
2019-05-01T06:04:36.017Z,34.50
2019-05-01T06:07:19.989Z,35.63
2019-05-01T06:09:35.416Z,33.77
2019-05-01T06:12:11.923Z,37.33
2019-05-01T06:15:02.469Z,29.17
2019-05-01T06:17:28.388Z,31.10
2019-05-01T06:19:49.696Z,33.47
2019-05-01T06:22:27.507Z,36.70
2019-05-01T06:24:40.922Z,35.93
2019-05-01T06:26:44.989Z,32.50
2019-05-01T06:28:49.559Z,35.80
2019-05-01T06:30:57.154Z,38.33
2019-05-01T06:33:04.152Z,38.40
2019-05-01T06:35:08.279Z,35.27
2019-05-01T06:37:13.851Z,36.57
2019-05-01T06:39:18.382Z,35.07
2019-05-01T06:41:28.804Z,34.73
2019-05-01T06:43:57.119Z,41.20
2019-05-01T06:46:27.378Z,34.13
2019-05-01T06:48:33.236Z,33.27
2019-05-01T06:50:50.405Z,38.67
2019-05-01T06:52:54.956Z,40.07
2019-05-01T06:55:01.716Z,36.60
2019-05-01T06:57:08.861Z,38.60
2019-05-01T06:59:16.600Z,35.93
2019-05-01T07:01:24.021Z,34.10
2019-05-01T07:03:33.681Z,38.27
2019-05-01T07:06:14.006Z,40.23
2019-05-01T07:08:24.345Z,37.83
2019-05-01T07:10:31.741Z,39.00
2019-05-01T07:12:36.009Z,32.90
2019-05-01T07:14:50.978Z,37.10
2019-05-01T07:16:57.724Z,35.07
2019-05-01T07:19:07.696Z,35.27
2019-05-01T07:21:15.253Z,36.47
2019-05-01T07:23:27.587Z,36.00
2019-05-01T07:25:39.308Z,36.17
2019-05-01T07:27:43.257Z,38.37
2019-05-01T07:29:50.320Z,38.10
2019-05-01T07:32:29.322Z,38.90
2019-05-01T07:34:35.961Z,39.57
2019-05-01T07:36:45.646Z,40.97
2019-05-01T07:38:50.026Z,41.30
2019-05-01T07:40:58.864Z,42.07
2019-05-01T07:43:11.865Z,41.90
2019-05-01T07:45:32.937Z,42.60
2019-05-01T07:47:43.549Z,39.20
2019-05-01T07:50:00.150Z,40.97
2019-05-01T07:52:04.969Z,42.50
2019-05-01T07:54:12.470Z,44.10
2019-05-01T07:56:17.349Z,43.40
2019-05-01T07:58:22.133Z,43.70
2019-05-01T08:00:41.566Z,43.17
2019-05-01T08:02:45.150Z,42.43
2019-05-01T08:04:50.673Z,43.87
2019-05-01T08:06:58.664Z,45.90
2019-05-01T08:09:03.436Z,45.07
2019-05-01T08:11:10.313Z,47.20
2019-05-01T08:13:14.812Z,45.70
2019-05-01T08:15:22.628Z,48.10
2019-05-01T08:17:27.199Z,46.00
2019-05-01T08:19:41.369Z,49.30
2019-05-01T08:21:56.940Z,47.50
2019-05-01T08:24:03.501Z,47.57
2019-05-01T08:26:10.211Z,46.73
2019-05-01T08:28:21.117Z,46.13
2019-05-01T08:30:54.169Z,50.30
2019-05-01T08:33:16.222Z,43.90
2019-05-01T08:35:23.176Z,47.03
2019-05-01T08:37:28.386Z,42.10
2019-05-01T08:39:44.294Z,44.87
2019-05-01T08:41:48.443Z,46.13
2019-05-01T08:43:55.944Z,44.80
2019-05-01T08:46:17.657Z,44.80
2019-05-01T08:48:36.022Z,48.70
2019-05-01T08:50:37.815Z,44.63
2019-05-01T08:52:46.952Z,44.37
2019-05-01T08:54:51.645Z,48.20
2019-05-01T08:56:57.993Z,44.83
2019-05-01T08:59:03.514Z,46.20
2019-05-01T09:01:10.742Z,47.07
2019-05-01T09:03:18.726Z,44.20
2019-05-01T09:05:29.100Z,44.70
2019-05-01T09:07:33.620Z,43.37
2019-05-01T09:09:47.285Z,44.00
2019-05-01T09:11:49.840Z,46.27
2019-05-01T09:13:58.662Z,43.47
2019-05-01T09:16:01.628Z,47.00
2019-05-01T09:18:06.265Z,43.97
2019-05-01T09:20:11.238Z,45.47
2019-05-01T09:22:16.308Z,45.57
2019-05-01T09:24:28.024Z,47.63
2019-05-01T09:26:50.254Z,45.80
2019-05-01T09:29:03.711Z,44.10
2019-05-01T09:31:13.435Z,43.40
2019-05-01T09:33:26.223Z,44.13
2019-05-01T09:35:32.374Z,45.00
2019-05-01T09:37:40.159Z,48.60
2019-05-01T09:39:47.174Z,44.50
2019-05-01T09:41:51.598Z,48.60
2019-05-01T09:43:58.103Z,51.73
2019-05-01T09:46:04.255Z,46.07
2019-05-01T09:48:14.419Z,46.97
2019-05-01T09:50:25.858Z,46.87
2019-05-01T09:52:40.794Z,46.50
2019-05-01T09:55:08.527Z,44.87
2019-05-01T09:57:18.185Z,46.00
2019-05-01T10:02:07.926Z,44.47
2019-05-01T10:04:15.648Z,46.10
2019-05-01T10:06:52.230Z,48.97
2019-05-01T10:09:11.984Z,47.70
2019-05-01T10:11:42.051Z,48.30
2019-05-01T10:13:53.627Z,43.57
2019-05-01T10:16:00.662Z,48.77
2019-05-01T10:18:07.448Z,50.40
2019-05-01T10:20:15.133Z,48.60
2019-05-01T10:22:28.423Z,48.60
2019-05-01T10:24:39.304Z,50.97
2019-05-01T10:26:55.174Z,49.00
2019-05-01T10:29:11.916Z,49.83
2019-05-01T10:31:47.764Z,44.60
2019-05-01T10:34:07.646Z,46.70
2019-05-01T10:36:29.760Z,45.50
2019-05-01T10:38:35.180Z,45.77
2019-05-01T10:40:40.568Z,45.77
2019-05-01T10:42:47.169Z,49.60
2019-05-01T10:44:55.411Z,47.07
2019-05-01T10:47:02.121Z,49.37
2019-05-01T10:49:09.967Z,45.70
2019-05-01T10:51:15.288Z,46.50
2019-05-01T10:53:20.560Z,46.10
2019-05-01T10:55:26.846Z,51.60
2019-05-01T10:57:42.127Z,48.93
2019-05-01T10:59:48.614Z,44.67
2019-05-01T11:01:56.214Z,49.57
2019-05-01T11:04:03.110Z,53.27
2019-05-01T11:06:08.556Z,47.83
2019-05-01T11:08:13.773Z,46.83
2019-05-01T11:10:19.895Z,50.47
2019-05-01T11:12:25.843Z,48.23
2019-05-01T11:14:32.410Z,51.50
2019-05-01T11:16:37.928Z,49.60
2019-05-01T11:18:42.547Z,49.47
2019-05-01T11:20:49.635Z,48.97
2019-05-01T11:22:57.105Z,48.10
2019-05-01T11:25:01.525Z,46.00
2019-05-01T11:27:06.624Z,49.67
2019-05-01T11:29:13.237Z,50.70
2019-05-01T11:31:22.718Z,48.17
2019-05-01T11:33:49.272Z,50.97
2019-05-01T11:36:17.882Z,50.50
2019-05-01T11:38:50.051Z,46.00
2019-05-01T11:41:00.006Z,47.90
2019-05-01T11:43:05.154Z,49.07
2019-05-01T11:45:12.464Z,53.00
2019-05-01T11:47:17.705Z,48.67
2019-05-01T11:49:23.825Z,50.67
2019-05-01T11:51:28.659Z,47.70
2019-05-01T11:53:39.438Z,47.87
2019-05-01T11:55:44.889Z,51.57
2019-05-01T11:57:52.391Z,47.90
2019-05-01T11:59:59.246Z,51.10
2019-05-01T12:02:04.779Z,47.60
2019-05-01T12:04:10.722Z,50.97
2019-05-01T12:06:22.628Z,52.30
2019-05-01T12:08:23.260Z,49.60
2019-05-01T12:10:41.931Z,46.40
2019-05-01T12:12:49.473Z,47.10
2019-05-01T12:14:58.400Z,43.97
2019-05-01T12:17:29.568Z,49.43
2019-05-01T12:19:34.507Z,52.83
2019-05-01T12:21:42.854Z,51.10
2019-05-01T12:23:48.128Z,44.00
2019-05-01T12:25:55.719Z,44.93
2019-05-01T12:28:03.148Z,45.43
2019-05-01T12:31:11.609Z,47.37
2019-05-01T12:33:20.162Z,44.00
2019-05-01T12:35:28.868Z,47.37
2019-05-01T12:37:55.433Z,44.53
2019-05-01T12:40:03.910Z,45.60
2019-05-01T12:42:09.477Z,43.50
2019-05-01T12:44:15.398Z,48.00
2019-05-01T12:46:46.873Z,45.30
2019-05-01T12:48:52.818Z,44.97
2019-05-01T12:51:04.271Z,43.40
2019-05-01T12:53:35.363Z,44.23
2019-05-01T12:59:09.352Z,37.80
2019-05-01T13:04:14.313Z,36.10
2019-05-01T13:06:49.534Z,34.20
2019-05-01T13:08:50.919Z,33.60
2019-05-01T13:10:58.697Z,32.90
2019-05-01T13:13:05.614Z,32.10
2019-05-01T13:15:17.820Z,33.13
2019-05-01T13:17:23.463Z,32.37
2019-05-01T13:20:04.624Z,32.67
2019-05-01T13:22:12.685Z,30.20
2019-05-01T13:24:33.572Z,26.80
2019-05-01T13:27:10.942Z,30.33
2019-05-01T13:29:29.004Z,29.17
2019-05-01T13:31:57.904Z,29.00
2019-05-01T13:34:05.958Z,29.37
2019-05-01T13:36:15.769Z,27.63
2019-05-01T13:38:26.670Z,27.57
2019-05-01T13:40:33.783Z,30.97
2019-05-01T13:42:46.013Z,31.40
2019-05-01T13:44:54.536Z,27.00
2019-05-01T13:47:05.518Z,29.33
2019-05-01T13:49:11.015Z,26.60
2019-05-01T13:51:15.468Z,29.77
2019-05-01T13:53:21.653Z,28.40
2019-05-01T13:55:28.398Z,27.20
2019-05-01T13:57:32.898Z,26.80
2019-05-01T13:59:37.682Z,27.00
2019-05-01T14:01:42.704Z,26.03
2019-05-01T14:03:47.701Z,27.30
2019-05-01T14:05:52.880Z,28.40
2019-05-01T14:07:59.230Z,27.07
2019-05-01T14:10:04.320Z,27.03
2019-05-01T14:12:08.696Z,29.93
2019-05-01T14:14:13.663Z,30.20
2019-05-01T14:16:20.745Z,28.97
2019-05-01T14:18:25.726Z,26.07
2019-05-01T14:20:55.973Z,29.30
2019-05-01T14:23:25.901Z,28.90
2019-05-01T14:25:49.439Z,27.60
2019-05-01T14:27:54.475Z,28.83
2019-05-01T14:29:59.887Z,29.03
2019-05-01T14:32:05.208Z,28.17
2019-05-01T14:34:10.264Z,30.67
2019-05-01T14:36:15.226Z,27.37
2019-05-01T14:38:21.038Z,30.10
2019-05-01T14:40:26.781Z,32.93
2019-05-01T14:42:31.538Z,29.43
2019-05-01T14:44:39.872Z,28.10
2019-05-01T14:46:45.330Z,27.53
2019-05-01T14:48:50.089Z,29.67
2019-05-01T14:50:55.474Z,28.87
2019-05-01T14:53:00.670Z,31.77
2019-05-01T14:55:06.311Z,30.30
2019-05-01T14:57:10.894Z,28.67
2019-05-01T14:59:15.638Z,29.33
2019-05-01T15:01:20.146Z,29.07
2019-05-01T15:03:24.831Z,29.63
2019-05-01T15:15:16.323Z,28.10
2019-05-01T15:17:35.683Z,27.47
2019-05-01T15:19:55.391Z,29.37
2019-05-01T15:22:01.562Z,29.37
2019-05-01T15:24:07.011Z,29.90
2019-05-01T15:26:14.801Z,29.13
2019-05-01T15:28:21.769Z,30.90
2019-05-01T15:30:28.627Z,29.07
2019-05-01T15:32:34.258Z,30.80
2019-05-01T15:34:39.828Z,27.77
2019-05-01T15:36:44.670Z,28.77
2019-05-01T15:38:49.206Z,29.90
2019-05-01T15:41:23.471Z,27.77
2019-05-01T15:43:35.036Z,29.47
2019-05-01T15:45:39.856Z,28.13
2019-05-01T15:47:45.674Z,26.83
2019-05-01T15:49:50.961Z,29.50
2019-05-01T15:51:56.928Z,28.03
2019-05-01T15:54:04.762Z,29.53
2019-05-01T15:56:10.383Z,30.87
2019-05-01T15:58:15.560Z,29.57
2019-05-01T16:00:21.199Z,29.80
2019-05-01T16:02:25.625Z,29.80
2019-05-01T16:04:30.534Z,27.33
2019-05-01T16:06:36.787Z,30.73
2019-05-01T16:08:42.243Z,29.30
2019-05-01T16:11:03.467Z,29.00
2019-05-01T16:13:09.277Z,29.73
2019-05-01T16:15:20.015Z,32.43
2019-05-01T16:17:28.842Z,29.90
2019-05-01T16:19:35.648Z,30.27
2019-05-01T16:21:43.983Z,31.03
2019-05-01T16:23:49.835Z,30.67
2019-05-01T16:25:55.134Z,30.43
2019-05-01T16:28:00.833Z,30.67
2019-05-01T16:30:06.458Z,30.10
2019-05-01T16:32:16.493Z,31.90
2019-05-01T16:34:21.933Z,31.00
2019-05-01T16:36:27.427Z,30.43
2019-05-01T16:38:49.849Z,31.17
2019-05-01T16:41:07.640Z,28.00
2019-05-01T16:43:13.863Z,30.63
2019-05-01T16:45:19.595Z,30.10
2019-05-01T16:47:24.693Z,32.30
2019-05-01T16:49:30.293Z,30.90
2019-05-01T16:51:37.148Z,30.73
2019-05-01T16:53:42.896Z,29.60
2019-05-01T16:55:48.504Z,32.93
2019-05-01T16:57:53.800Z,33.07
2019-05-01T16:59:58.781Z,29.80
2019-05-01T17:02:16.386Z,29.90
2019-05-01T17:04:38.137Z,30.03
2019-05-01T17:06:47.553Z,30.80
2019-05-01T17:09:22.787Z,32.10
2019-05-01T17:11:32.514Z,32.53
2019-05-01T17:13:38.750Z,33.77
2019-05-01T17:15:44.988Z,27.80
2019-05-01T17:17:50.390Z,30.00
2019-05-01T17:19:56.772Z,29.97
2019-05-01T17:22:01.688Z,29.93
2019-05-01T17:24:09.476Z,32.20
2019-05-01T17:26:17.756Z,30.93
2019-05-01T17:28:24.777Z,33.07
2019-05-01T17:30:50.605Z,31.40
2019-05-01T17:32:55.211Z,29.80
2019-05-01T17:35:01.960Z,31.67
2019-05-01T17:37:08.883Z,30.57
2019-05-01T17:39:14.698Z,31.53
2019-05-01T17:41:22.736Z,31.60
2019-05-01T17:43:28.142Z,31.10
2019-05-01T17:45:36.662Z,30.37
2019-05-01T17:47:42.501Z,32.47
2019-05-01T17:49:47.119Z,31.17
2019-05-01T17:51:53.372Z,34.27
2019-05-01T17:54:00.455Z,30.50
2019-05-01T17:56:10.110Z,28.90
2019-05-01T17:58:13.599Z,33.87
2019-05-01T18:00:39.264Z,29.23
2019-05-01T18:03:12.121Z,32.20
2019-05-01T18:06:15.364Z,29.63
2019-05-01T18:08:26.107Z,30.77
2019-05-01T18:10:43.995Z,28.80
2019-05-01T18:12:49.060Z,32.57
2019-05-01T18:14:53.760Z,30.70
2019-05-01T18:16:58.974Z,30.50
2019-05-01T18:19:09.739Z,32.40
2019-05-01T18:21:15.202Z,31.87
2019-05-01T18:23:49.473Z,31.47
2019-05-01T18:26:04.756Z,31.27
2019-05-01T18:28:35.318Z,31.00
2019-05-01T18:30:44.347Z,32.60
2019-05-01T18:32:52.431Z,32.20
2019-05-01T18:35:02.739Z,34.10
2019-05-01T18:37:16.779Z,30.10
2019-05-01T18:39:30.908Z,29.30
2019-05-01T18:42:01.404Z,31.80
2019-05-01T18:44:16.807Z,31.87
2019-05-01T18:46:32.923Z,31.40
2019-05-01T18:51:23.887Z,30.27
2019-05-01T18:53:33.773Z,31.90
2019-05-01T18:55:39.601Z,33.73
2019-05-01T18:57:46.151Z,31.50
2019-05-01T18:59:54.092Z,32.57
2019-05-01T19:02:06.101Z,32.00
2019-05-01T19:04:18.383Z,32.03
2019-05-01T19:06:24.315Z,33.07
2019-05-01T19:08:34.308Z,33.13
2019-05-01T19:10:42.914Z,32.77
2019-05-01T19:12:53.061Z,32.80
2019-05-01T19:15:05.440Z,31.87
2019-05-01T19:17:11.235Z,33.07
2019-05-01T19:19:20.171Z,32.50
2019-05-01T19:21:31.547Z,31.87
2019-05-01T19:23:40.305Z,31.50
2019-05-01T19:25:48.791Z,34.97
2019-05-01T19:27:57.763Z,31.97
2019-05-01T19:30:09.757Z,32.10
2019-05-01T19:32:19.740Z,32.30
2019-05-01T19:34:26.939Z,32.57
2019-05-01T19:36:40.353Z,33.50
2019-05-01T19:39:14.275Z,32.53
2019-05-01T19:41:28.792Z,33.10
2019-05-01T19:43:51.663Z,33.03
2019-05-01T19:46:03.056Z,33.10
2019-05-01T19:48:15.130Z,32.93
2019-05-01T19:50:47.913Z,33.90
2019-05-01T19:53:14.711Z,34.47
2019-05-01T19:55:32.796Z,31.73
2019-05-01T19:57:41.369Z,34.13
2019-05-01T20:00:01.785Z,32.47
2019-05-01T20:02:11.483Z,32.33
2019-05-01T20:04:28.209Z,33.80
2019-05-01T20:06:38.586Z,34.30
2019-05-01T20:08:49.024Z,33.33
2019-05-01T20:11:03.357Z,33.40
2019-05-01T20:13:30.500Z,34.17
2019-05-01T20:15:43.439Z,34.63
2019-05-01T20:18:01.296Z,36.63
2019-05-01T20:20:28.918Z,34.90
2019-05-01T20:23:15.177Z,35.30
2019-05-01T20:25:34.733Z,34.43
2019-05-01T20:27:52.585Z,35.70
2019-05-01T20:30:01.928Z,35.90
2019-05-01T20:32:14.449Z,33.70
2019-05-01T20:34:35.798Z,35.30
2019-05-01T20:36:46.941Z,35.17
2019-05-01T20:39:15.717Z,34.50
2019-05-01T20:41:47.574Z,35.27
2019-05-01T20:43:54.363Z,35.10
2019-05-01T20:46:09.960Z,35.27
2019-05-01T20:48:44.327Z,36.00
2019-05-01T20:51:00.609Z,34.67
2019-05-01T20:53:24.371Z,32.90
2019-05-01T20:55:29.294Z,34.60
2019-05-01T20:57:41.434Z,35.27
2019-05-01T20:59:51.788Z,34.33
2019-05-01T21:01:59.586Z,32.87
2019-05-01T21:04:58.414Z,37.00
2019-05-01T21:07:45.543Z,33.30
2019-05-01T21:09:57.236Z,31.80
2019-05-01T21:12:05.558Z,32.93
2019-05-01T21:16:24.451Z,35.20
2019-05-01T21:18:34.056Z,34.30
2019-05-01T21:20:38.995Z,34.90
2019-05-01T21:22:49.283Z,34.40
2019-05-01T21:25:35.129Z,36.00
2019-05-01T21:27:38.602Z,34.00
2019-05-01T21:29:44.648Z,30.53
2019-05-01T21:32:27.433Z,32.23
2019-05-01T21:34:55.387Z,32.27
2019-05-01T21:37:01.872Z,30.43
2019-05-01T21:39:07.138Z,34.07
2019-05-01T21:41:12.051Z,31.90
2019-05-01T21:43:16.949Z,38.03
2019-05-01T21:45:24.578Z,33.17
2019-05-01T21:47:29.627Z,33.63
2019-05-01T21:49:34.510Z,31.97
2019-05-01T21:51:44.347Z,32.40
2019-05-01T21:53:47.962Z,34.17
2019-05-01T21:55:53.780Z,31.37
2019-05-01T21:58:05.026Z,34.13
2019-05-01T22:00:12.421Z,34.50
2019-05-01T22:02:18.470Z,34.00
2019-05-01T22:04:23.035Z,37.50
2019-05-01T22:06:27.555Z,34.23
2019-05-01T22:08:34.520Z,34.13
2019-05-01T22:10:51.456Z,32.20
2019-05-01T22:12:50.710Z,36.83
2019-05-01T22:15:06.050Z,33.67
2019-05-01T22:17:18.571Z,37.03
2019-05-01T22:19:25.805Z,33.60
2019-05-01T22:21:48.161Z,34.53
2019-05-01T22:24:21.498Z,33.60
2019-05-01T22:26:28.951Z,35.00
2019-05-01T22:28:59.164Z,36.03
2019-05-01T22:31:32.505Z,34.73
2019-05-01T22:33:38.279Z,34.30
2019-05-01T22:35:48.487Z,33.53
2019-05-01T22:37:53.184Z,35.27
2019-05-01T22:40:04.062Z,35.30
2019-05-01T22:42:10.683Z,35.07
2019-05-01T22:44:18.071Z,36.53
2019-05-01T22:46:26.828Z,35.60
2019-05-01T22:48:33.956Z,33.00
2019-05-01T22:50:39.073Z,32.73
2019-05-01T22:52:43.619Z,33.77
2019-05-01T22:54:50.824Z,33.17
2019-05-01T22:56:55.531Z,33.80
2019-05-01T22:59:00.050Z,33.60
2019-05-01T23:01:05.312Z,35.37
2019-05-01T23:03:15.887Z,34.27
2019-05-01T23:05:23.065Z,34.20
2019-05-01T23:08:10.285Z,35.40
2019-05-01T23:10:35.748Z,32.97
2019-05-01T23:12:41.444Z,32.63
2019-05-01T23:14:47.448Z,34.47
2019-05-01T23:17:16.825Z,33.03
2019-05-01T23:19:22.808Z,33.00
2019-05-01T23:21:29.373Z,34.57
2019-05-01T23:23:34.566Z,36.80
2019-05-01T23:25:42.380Z,36.87
2019-05-01T23:27:50.481Z,34.87
2019-05-01T23:29:58.358Z,34.50
2019-05-01T23:32:03.969Z,31.67
2019-05-01T23:34:09.009Z,36.70
2019-05-01T23:36:23.209Z,35.67
2019-05-01T23:38:23.479Z,34.13
2019-05-01T23:40:28.818Z,36.60
2019-05-01T23:42:36.793Z,35.00
2019-05-01T23:44:42.910Z,35.07
2019-05-01T23:46:50.081Z,36.47
2019-05-01T23:48:55.084Z,36.00
2019-05-01T23:51:04.202Z,36.47
2019-05-01T23:53:18.594Z,32.30
2019-05-01T23:55:24.306Z,34.73
2019-05-01T23:57:31.025Z,36.37
2019-05-01T23:59:42.907Z,36.10
